createdAt,value
2023-05-04T00:01:47.830Z,8.22
2023-05-04T00:04:42.650Z,8.18
2023-05-04T00:07:34.830Z,8.13
2023-05-04T00:10:27.971Z,8.07
2023-05-04T00:13:19.987Z,8.02
2023-05-04T00:16:12.369Z,7.97
2023-05-04T00:19:04.626Z,7.92
2023-05-04T00:21:56.624Z,7.86
2023-05-04T00:24:31.638Z,7.82
2023-05-04T00:27:23.625Z,7.78
2023-05-04T00:30:16.565Z,7.74
2023-05-04T00:33:08.613Z,7.71
2023-05-04T00:36:00.954Z,7.67
2023-05-04T00:38:50.014Z,7.62
2023-05-04T00:41:42.172Z,7.58
2023-05-04T00:44:35.691Z,7.56
2023-05-04T00:47:29.816Z,7.55
2023-05-04T00:50:22.384Z,7.54
2023-05-04T00:53:06.919Z,7.53
2023-05-04T00:55:59.015Z,7.50
2023-05-04T00:58:54.165Z,7.48
2023-05-04T01:01:46.213Z,7.46
2023-05-04T01:04:38.358Z,7.47
2023-05-04T01:07:39.480Z,7.45
2023-05-04T01:10:35.843Z,7.43
2023-05-04T01:13:29.162Z,7.40
2023-05-04T01:16:21.921Z,7.36
2023-05-04T01:19:13.979Z,7.32
2023-05-04T01:22:06.011Z,7.29
2023-05-04T01:24:58.172Z,7.26
2023-05-04T01:27:58.412Z,7.25
2023-05-04T01:30:55.030Z,7.24
2023-05-04T01:33:47.494Z,7.23
2023-05-04T01:36:40.323Z,7.20
2023-05-04T01:39:32.465Z,7.18
2023-05-04T01:42:24.482Z,7.17
2023-05-04T01:45:17.218Z,7.15
2023-05-04T01:48:09.723Z,7.14
2023-05-04T01:51:01.803Z,7.11
2023-05-04T01:53:53.766Z,7.07
2023-05-04T01:56:45.884Z,7.04
2023-05-04T01:59:37.880Z,7.02
2023-05-04T02:02:29.908Z,7.01
2023-05-04T02:05:21.926Z,7.00
2023-05-04T02:08:13.971Z,6.96
2023-05-04T02:11:06.044Z,6.93
2023-05-04T02:13:58.058Z,6.89
2023-05-04T02:16:50.063Z,6.84
2023-05-04T02:19:42.070Z,6.80
2023-05-04T02:22:34.212Z,6.75
2023-05-04T02:25:26.382Z,6.73
2023-05-04T02:28:18.691Z,6.71
2023-05-04T02:31:10.750Z,6.69
2023-05-04T02:34:03.133Z,6.66
2023-05-04T02:36:55.126Z,6.65
2023-05-04T02:39:47.059Z,6.62
2023-05-04T02:42:39.035Z,6.60
2023-05-04T02:45:31.006Z,6.57
2023-05-04T02:48:23.063Z,6.55
2023-05-04T02:51:15.125Z,6.52
2023-05-04T02:54:08.434Z,6.51
2023-05-04T02:57:00.732Z,6.50
2023-05-04T02:59:52.663Z,6.48
2023-05-04T03:02:44.801Z,6.45
2023-05-04T03:05:27.115Z,6.40
2023-05-04T03:08:19.192Z,6.34
2023-05-04T03:11:11.128Z,6.31
2023-05-04T03:14:03.350Z,6.28
2023-05-04T03:16:51.654Z,6.27
2023-05-04T03:19:43.991Z,6.25
2023-05-04T03:22:36.024Z,6.25
2023-05-04T03:25:15.333Z,6.24
2023-05-04T03:28:08.111Z,6.24
2023-05-04T03:31:00.191Z,6.24
2023-05-04T03:33:52.143Z,6.25
2023-05-04T03:36:44.547Z,6.25
2023-05-04T03:39:36.628Z,6.26
2023-05-04T03:42:28.689Z,6.26
2023-05-04T03:45:21.462Z,6.25
2023-05-04T03:47:56.654Z,6.25
2023-05-04T03:50:48.822Z,6.25
2023-05-04T03:56:18.098Z,6.28
2023-05-04T03:59:10.071Z,6.30
2023-05-04T04:02:02.587Z,6.33
2023-05-04T04:04:54.705Z,6.35
2023-05-04T04:07:46.713Z,6.41
2023-05-04T04:10:38.798Z,6.45
2023-05-04T04:13:30.762Z,6.50
2023-05-04T04:16:22.941Z,6.55
2023-05-04T04:19:15.088Z,6.60
2023-05-04T04:22:07.231Z,6.66
2023-05-04T04:24:59.192Z,6.73
2023-05-04T04:27:51.252Z,6.80
2023-05-04T04:30:43.592Z,6.87
2023-05-04T04:33:36.409Z,6.95
2023-05-04T04:36:28.343Z,7.05
2023-05-04T04:39:05.855Z,7.13
2023-05-04T04:41:57.872Z,7.23
2023-05-04T04:44:50.539Z,7.33
2023-05-04T04:47:42.542Z,7.45
2023-05-04T04:50:34.561Z,7.56
2023-05-04T04:53:26.607Z,7.69
2023-05-04T04:56:19.355Z,7.81
2023-05-04T04:59:11.624Z,7.93
2023-05-04T05:01:47.014Z,8.05
2023-05-04T05:04:40.441Z,8.20
2023-05-04T05:07:22.998Z,8.34
2023-05-04T05:10:15.169Z,8.50
2023-05-04T05:13:07.334Z,8.68
2023-05-04T05:15:59.515Z,8.85
2023-05-04T05:18:51.710Z,9.06
2023-05-04T05:21:43.745Z,9.33
2023-05-04T05:24:35.774Z,9.66
2023-05-04T05:27:29.225Z,10.37
2023-05-04T05:30:21.439Z,11.82
2023-05-04T05:33:13.869Z,13.51
2023-05-04T05:36:06.670Z,15.26
2023-05-04T05:38:58.701Z,17.04
2023-05-04T05:41:50.750Z,18.74
2023-05-04T05:44:42.711Z,20.40
2023-05-04T05:47:34.696Z,22.00
2023-05-04T05:50:26.736Z,23.46
2023-05-04T05:53:18.751Z,24.71
2023-05-04T05:56:11.081Z,25.87
2023-05-04T05:59:03.130Z,27.10
2023-05-04T06:01:54.966Z,28.18
2023-05-04T06:04:47.211Z,29.26
2023-05-04T06:07:39.214Z,30.28
2023-05-04T06:10:31.155Z,31.19
2023-05-04T06:13:23.121Z,32.06
2023-05-04T06:16:00.258Z,32.89
2023-05-04T06:18:52.812Z,33.73
2023-05-04T06:21:44.885Z,34.48
2023-05-04T06:24:36.922Z,35.24
2023-05-04T06:27:31.661Z,35.79
2023-05-04T06:30:24.456Z,36.37
2023-05-04T06:33:16.468Z,36.94
2023-05-04T06:36:09.160Z,37.53
2023-05-04T06:39:01.323Z,38.10
2023-05-04T06:41:56.208Z,38.47
2023-05-04T06:44:48.238Z,38.62
2023-05-04T06:47:40.216Z,38.88
2023-05-04T06:50:33.391Z,39.08
2023-05-04T06:53:25.759Z,39.17
2023-05-04T06:56:18.103Z,38.78
2023-05-04T06:59:10.582Z,37.85
2023-05-04T07:02:02.602Z,36.91
2023-05-04T07:04:55.096Z,35.47
2023-05-04T07:07:48.038Z,33.95
2023-05-04T07:10:40.309Z,32.60
2023-05-04T07:13:32.444Z,30.79
2023-05-04T07:16:24.462Z,29.20
2023-05-04T07:19:17.602Z,27.82
2023-05-04T07:22:09.734Z,26.73
2023-05-04T07:25:02.021Z,25.87
2023-05-04T07:27:54.112Z,25.00
2023-05-04T07:30:43.300Z,23.97
2023-05-04T07:33:35.394Z,23.02
2023-05-04T07:36:27.859Z,22.23
2023-05-04T07:39:19.851Z,21.79
2023-05-04T07:42:12.663Z,21.43
2023-05-04T07:45:04.969Z,21.08
2023-05-04T07:47:57.005Z,20.69
2023-05-04T07:50:49.273Z,20.17
2023-05-04T07:53:41.438Z,19.79
2023-05-04T07:56:33.737Z,19.49
2023-05-04T07:59:08.409Z,19.29
2023-05-04T08:01:44.211Z,19.16
2023-05-04T08:04:36.212Z,19.11
2023-05-04T08:07:28.320Z,19.01
2023-05-04T08:10:03.168Z,18.84
2023-05-04T08:12:55.312Z,18.79
2023-05-04T08:15:47.626Z,18.80
2023-05-04T08:18:39.639Z,18.79
2023-05-04T08:21:31.728Z,18.86
2023-05-04T08:24:32.102Z,18.79
2023-05-04T08:27:24.148Z,18.78
2023-05-04T08:30:17.093Z,18.91
2023-05-04T08:33:09.160Z,18.97
2023-05-04T08:36:01.440Z,19.15
2023-05-04T08:38:54.232Z,19.42
2023-05-04T08:41:46.322Z,19.58
2023-05-04T08:44:27.535Z,19.70
2023-05-04T08:47:19.600Z,19.84
2023-05-04T08:50:12.957Z,19.99
2023-05-04T08:53:06.752Z,20.14
2023-05-04T08:56:03.999Z,20.10
2023-05-04T08:59:01.683Z,20.19
2023-05-04T09:01:57.317Z,20.35
2023-05-04T09:04:49.653Z,20.16
2023-05-04T09:07:41.714Z,20.11
2023-05-04T09:10:34.299Z,20.13
2023-05-04T09:13:26.291Z,20.03
2023-05-04T09:16:07.715Z,19.76
2023-05-04T09:18:59.638Z,19.46
2023-05-04T09:21:54.338Z,19.36
2023-05-04T09:24:46.821Z,19.42
2023-05-04T09:27:41.308Z,19.61
2023-05-04T09:30:33.654Z,19.75
2023-05-04T09:33:29.621Z,19.84
2023-05-04T09:36:24.993Z,20.20
2023-05-04T09:39:17.477Z,20.66
2023-05-04T09:42:18.799Z,20.72
2023-05-04T09:45:10.966Z,20.60
2023-05-04T09:48:03.122Z,20.26
2023-05-04T09:50:55.943Z,19.89
2023-05-04T09:53:49.219Z,20.16
2023-05-04T09:56:47.630Z,20.31
2023-05-04T09:59:40.664Z,20.42
2023-05-04T10:02:34.754Z,20.26
2023-05-04T10:05:28.512Z,20.23
2023-05-04T10:08:21.691Z,20.23
2023-05-04T10:11:18.577Z,20.51
2023-05-04T10:14:10.845Z,20.39
2023-05-04T10:17:13.912Z,20.32
2023-05-04T10:20:27.639Z,20.46
2023-05-04T10:23:45.690Z,20.62
2023-05-04T10:26:51.361Z,20.73
2023-05-04T10:29:44.055Z,20.94
2023-05-04T10:32:39.881Z,21.09
2023-05-04T10:35:32.279Z,21.09
2023-05-04T10:38:34.321Z,21.10
2023-05-04T10:41:26.310Z,20.93
2023-05-04T10:44:18.304Z,20.64
2023-05-04T10:47:11.458Z,20.63
2023-05-04T10:49:43.398Z,20.64
2023-05-04T10:52:46.231Z,20.50
2023-05-04T10:55:43.235Z,20.49
2023-05-04T10:58:35.218Z,20.53
2023-05-04T11:01:27.358Z,20.43
2023-05-04T11:04:23.308Z,20.36
2023-05-04T11:07:15.314Z,20.44
2023-05-04T11:10:09.429Z,20.52
2023-05-04T11:13:05.572Z,20.44
2023-05-04T11:15:58.318Z,20.40
2023-05-04T11:18:50.410Z,20.54
2023-05-04T11:21:31.819Z,20.63
2023-05-04T11:24:23.835Z,20.71
2023-05-04T11:27:25.283Z,20.81
2023-05-04T11:30:18.025Z,20.87
2023-05-04T11:33:15.595Z,20.96
2023-05-04T11:36:08.837Z,21.05
2023-05-04T11:39:01.093Z,21.07
2023-05-04T11:41:36.488Z,20.96
2023-05-04T11:44:30.168Z,20.85
2023-05-04T11:47:22.793Z,20.82
2023-05-04T11:50:16.696Z,20.94
2023-05-04T11:53:09.938Z,21.05
2023-05-04T11:56:06.546Z,20.92
2023-05-04T11:59:08.364Z,20.85
2023-05-04T12:02:00.963Z,20.95
2023-05-04T12:04:52.956Z,21.11
2023-05-04T12:07:44.997Z,21.27
2023-05-04T12:10:36.987Z,21.38
2023-05-04T12:13:18.228Z,21.46
2023-05-04T12:16:18.199Z,21.55
2023-05-04T12:19:12.797Z,21.64
2023-05-04T12:22:06.051Z,21.73
2023-05-04T12:24:59.898Z,21.69
2023-05-04T12:27:52.163Z,21.74
2023-05-04T12:30:44.146Z,21.82
2023-05-04T12:33:37.063Z,21.86
2023-05-04T12:36:10.304Z,21.91
2023-05-04T12:39:02.390Z,21.92
2023-05-04T12:41:54.361Z,21.96
2023-05-04T12:44:46.378Z,21.88
2023-05-04T12:47:24.737Z,21.87
2023-05-04T12:50:16.854Z,21.84
2023-05-04T12:53:09.565Z,21.61
2023-05-04T12:56:03.646Z,21.60
2023-05-04T12:58:56.429Z,21.52
2023-05-04T13:01:48.480Z,21.45
2023-05-04T13:04:40.507Z,21.53
2023-05-04T13:07:32.597Z,21.59
2023-05-04T13:10:25.444Z,21.59
2023-05-04T13:13:17.985Z,21.56
2023-05-04T13:16:10.443Z,21.47
2023-05-04T13:19:03.229Z,21.17
2023-05-04T13:21:55.215Z,20.98
2023-05-04T13:24:47.208Z,20.73
2023-05-04T13:27:39.197Z,20.52
2023-05-04T13:30:31.504Z,20.48
2023-05-04T13:33:29.545Z,20.54
2023-05-04T13:36:22.867Z,20.67
2023-05-04T13:39:14.890Z,20.80
2023-05-04T13:41:50.064Z,20.89
2023-05-04T13:44:24.716Z,20.95
2023-05-04T13:47:17.629Z,21.00
2023-05-04T13:50:04.041Z,20.97
2023-05-04T13:52:56.055Z,20.95
2023-05-04T13:55:48.251Z,20.86
2023-05-04T13:58:40.207Z,20.63
2023-05-04T14:01:32.242Z,20.55
2023-05-04T14:04:24.654Z,20.52
2023-05-04T14:07:16.656Z,20.34
2023-05-04T14:10:10.105Z,20.16
2023-05-04T14:13:02.224Z,20.01
2023-05-04T14:15:54.335Z,19.92
2023-05-04T14:18:46.302Z,19.83
2023-05-04T14:21:38.771Z,19.74
2023-05-04T14:24:31.627Z,19.74
2023-05-04T14:27:12.673Z,19.77
2023-05-04T14:30:05.043Z,19.79
2023-05-04T14:32:58.173Z,19.88
2023-05-04T14:35:48.032Z,20.00
2023-05-04T14:38:38.814Z,20.05
2023-05-04T14:41:33.540Z,20.01
2023-05-04T14:44:27.226Z,20.01
2023-05-04T14:47:20.122Z,19.95
2023-05-04T14:50:13.298Z,19.83
2023-05-04T14:52:47.911Z,19.74
2023-05-04T14:55:41.928Z,19.59
2023-05-04T14:58:33.932Z,19.47
2023-05-04T15:01:26.046Z,19.46
2023-05-04T15:04:17.972Z,19.50
2023-05-04T15:07:10.042Z,19.49
2023-05-04T15:10:01.975Z,19.50
2023-05-04T15:12:54.325Z,19.45
2023-05-04T15:15:46.362Z,19.36
2023-05-04T15:18:38.360Z,19.33
2023-05-04T15:21:20.562Z,19.34
2023-05-04T15:24:12.571Z,19.35
2023-05-04T15:27:04.707Z,19.30
2023-05-04T15:29:54.768Z,19.31
2023-05-04T15:32:46.797Z,19.26
2023-05-04T15:35:39.211Z,19.19
2023-05-04T15:38:31.193Z,19.08
2023-05-04T15:41:23.203Z,19.00
2023-05-04T15:44:15.286Z,18.94
2023-05-04T15:47:09.635Z,18.95
2023-05-04T15:50:01.713Z,18.96
2023-05-04T15:52:38.609Z,18.97
2023-05-04T15:55:30.812Z,18.96
2023-05-04T15:58:22.809Z,18.92
2023-05-04T16:01:14.963Z,18.91
2023-05-04T16:04:07.265Z,18.86
2023-05-04T16:06:39.478Z,18.84
2023-05-04T16:09:31.689Z,18.79
2023-05-04T16:12:23.655Z,18.74
2023-05-04T16:15:15.844Z,18.75
2023-05-04T16:17:53.102Z,18.75
2023-05-04T16:20:45.166Z,18.74
2023-05-04T16:23:37.359Z,18.73
2023-05-04T16:26:09.260Z,18.73
2023-05-04T16:29:01.262Z,18.73
2023-05-04T16:31:53.205Z,18.71
2023-05-04T16:34:45.500Z,18.71
2023-05-04T16:37:39.902Z,18.66
2023-05-04T16:40:32.735Z,18.51
2023-05-04T16:43:24.890Z,18.36
2023-05-04T16:46:17.214Z,18.25
2023-05-04T16:49:10.915Z,18.17
2023-05-04T16:52:04.910Z,18.11
2023-05-04T16:54:57.090Z,18.01
2023-05-04T16:57:49.272Z,17.87
2023-05-04T17:00:43.001Z,17.83
2023-05-04T17:03:35.621Z,17.79
2023-05-04T17:06:27.819Z,17.70
2023-05-04T17:09:19.812Z,17.65
2023-05-04T17:12:11.828Z,17.62
2023-05-04T17:15:04.053Z,17.59
2023-05-04T17:17:56.559Z,17.52
2023-05-04T17:20:48.579Z,17.48
2023-05-04T17:23:29.600Z,17.50
2023-05-04T17:26:21.859Z,17.51
2023-05-04T17:29:04.291Z,17.50
2023-05-04T17:31:56.450Z,17.48
2023-05-04T17:34:48.499Z,17.47
2023-05-04T17:37:40.556Z,17.46
2023-05-04T17:40:32.571Z,17.45
2023-05-04T17:43:24.566Z,17.38
2023-05-04T17:46:16.741Z,17.33
2023-05-04T17:49:08.801Z,17.27
2023-05-04T17:52:01.395Z,17.19
2023-05-04T17:54:54.721Z,17.15
2023-05-04T17:57:29.931Z,17.11
2023-05-04T18:00:23.113Z,17.07
2023-05-04T18:03:15.263Z,17.03
2023-05-04T18:05:57.372Z,16.95
2023-05-04T18:08:49.416Z,16.87
2023-05-04T18:11:41.386Z,16.83
2023-05-04T18:14:33.362Z,16.79
2023-05-04T18:17:26.433Z,16.73
2023-05-04T18:20:18.694Z,16.67
2023-05-04T18:22:53.527Z,16.62
2023-05-04T18:25:45.544Z,16.56
2023-05-04T18:28:37.490Z,16.53
2023-05-04T18:31:09.454Z,16.46
2023-05-04T18:34:03.733Z,16.37
2023-05-04T18:36:56.612Z,16.30
2023-05-04T18:39:48.958Z,16.22
2023-05-04T18:42:31.987Z,16.15
2023-05-04T18:45:24.179Z,16.08
2023-05-04T18:48:16.148Z,16.02
2023-05-04T18:51:08.251Z,15.97
2023-05-04T18:54:00.266Z,15.92
2023-05-04T18:56:43.248Z,15.88
2023-05-04T18:59:36.007Z,15.83
2023-05-04T19:02:29.894Z,15.78
2023-05-04T19:05:22.035Z,15.72
2023-05-04T19:08:14.021Z,15.68
2023-05-04T19:11:05.982Z,15.63
2023-05-04T19:13:58.863Z,15.60
2023-05-04T19:16:50.829Z,15.58
2023-05-04T19:19:42.959Z,15.54
2023-05-04T19:22:34.997Z,15.52
2023-05-04T19:28:25.469Z,15.51
2023-05-04T19:31:17.472Z,15.47
2023-05-04T19:34:09.661Z,15.42
2023-05-04T19:37:01.753Z,15.40
2023-05-04T19:39:54.663Z,15.39
2023-05-04T19:42:47.027Z,15.37
2023-05-04T19:45:21.933Z,15.36
2023-05-04T19:48:16.296Z,15.34
2023-05-04T19:51:08.534Z,15.29
2023-05-04T19:54:00.621Z,15.27
2023-05-04T19:56:52.894Z,15.24
2023-05-04T19:59:46.898Z,15.21
2023-05-04T20:02:39.537Z,15.17
2023-05-04T20:05:31.698Z,15.14
2023-05-04T20:08:23.615Z,15.10
2023-05-04T20:11:15.723Z,15.07
2023-05-04T20:14:07.945Z,15.03
2023-05-04T20:17:00.158Z,14.99
2023-05-04T20:19:34.746Z,14.95
2023-05-04T20:22:09.076Z,14.91
2023-05-04T20:25:01.106Z,14.87
2023-05-04T20:27:53.863Z,14.83
2023-05-04T20:30:46.748Z,14.78
2023-05-04T20:33:38.894Z,14.73
2023-05-04T20:36:30.968Z,14.68
2023-05-04T20:39:11.359Z,14.64
2023-05-04T20:42:03.986Z,14.59
2023-05-04T20:44:56.002Z,14.55
2023-05-04T20:47:48.383Z,14.48
2023-05-04T20:50:40.604Z,14.43
2023-05-04T20:53:44.430Z,14.38
2023-05-04T20:56:36.523Z,14.35
2023-05-04T20:59:28.575Z,14.31
2023-05-04T21:02:20.581Z,14.27
2023-05-04T21:05:12.795Z,14.23
2023-05-04T21:08:04.832Z,14.19
2023-05-04T21:10:56.764Z,14.13
2023-05-04T21:13:48.813Z,14.07
2023-05-04T21:16:40.796Z,14.02
2023-05-04T21:19:32.796Z,13.97
2023-05-04T21:22:24.771Z,13.93
2023-05-04T21:25:17.079Z,13.88
2023-05-04T21:28:09.042Z,13.82
2023-05-04T21:30:46.014Z,13.78
2023-05-04T21:33:38.019Z,13.73
2023-05-04T21:36:29.999Z,13.67
2023-05-04T21:39:22.980Z,13.65
2023-05-04T21:42:14.978Z,13.60
2023-05-04T21:45:08.310Z,13.56
2023-05-04T21:47:42.943Z,13.52
2023-05-04T21:50:34.934Z,13.47
2023-05-04T21:53:27.051Z,13.43
2023-05-04T21:56:19.132Z,13.38
2023-05-04T21:59:11.386Z,13.34
2023-05-04T22:02:03.718Z,13.30
2023-05-04T22:04:55.837Z,13.25
2023-05-04T22:07:47.781Z,13.21
2023-05-04T22:10:40.170Z,13.17
2023-05-04T22:13:32.224Z,13.13
2023-05-04T22:16:24.595Z,13.09
2023-05-04T22:19:16.566Z,13.07
2023-05-04T22:22:08.574Z,13.04
2023-05-04T22:25:00.587Z,13.00
2023-05-04T22:27:52.610Z,12.94
2023-05-04T22:30:44.598Z,12.89
2023-05-04T22:33:36.631Z,12.84
2023-05-04T22:36:28.683Z,12.82
2023-05-04T22:39:15.790Z,12.80
2023-05-04T22:42:07.994Z,12.79
2023-05-04T22:45:00.182Z,12.76
2023-05-04T22:47:32.029Z,12.74
2023-05-04T22:50:08.000Z,12.71
2023-05-04T22:53:00.240Z,12.69
2023-05-04T22:55:52.205Z,12.66
2023-05-04T22:58:45.885Z,12.64
2023-05-04T23:01:42.527Z,12.63
2023-05-04T23:04:34.694Z,12.60
2023-05-04T23:07:26.696Z,12.57
2023-05-04T23:10:18.750Z,12.55
2023-05-04T23:13:10.824Z,12.53
2023-05-04T23:15:44.886Z,12.51
2023-05-04T23:18:36.937Z,12.47
2023-05-04T23:21:28.867Z,12.44
2023-05-04T23:24:20.835Z,12.41
2023-05-04T23:27:12.872Z,12.36
2023-05-04T23:30:06.132Z,12.35
2023-05-04T23:32:58.468Z,12.32
2023-05-04T23:35:50.472Z,12.29
2023-05-04T23:38:42.524Z,12.27
2023-05-04T23:41:34.697Z,12.25
2023-05-04T23:44:26.779Z,12.23
2023-05-04T23:47:18.743Z,12.22
2023-05-04T23:50:12.406Z,12.19
2023-05-04T23:53:04.487Z,12.16
2023-05-04T23:56:04.297Z,12.13
2023-05-04T23:58:56.550Z,12.09
